• Join FlightAware (Why Join?)
  • Login
  • US Flag 
12:08PM EDT


 

Airport Tracker/Info


-or-


 

Live Flight TrackerFlight Track Log ✈ UPS2292 ✈ 05-Dec-2013 ✈ KMCO - KCAE

Flight Track Log - Related Links

Times and Time Zones

All times are in EST time to prevent confusion due to time zone crossing. See the UPS2292 flight status page for this flight to view local times or setup timezone preferences in your user account.

Time Position Orientation Groundspeed Altitude Reporting Facility
EST Latitude Longitude Course Direction KTS MPH feet Rate Location/Type
05:37PM 28.4408 -81.3222 179° South 135 155  Level FlightAware ADS-B (KMCO)
05:37PM 28.4268 -81.3212 176° South 134 154 1,200 3,240 Climbing FlightAware ADS-B (KMCO)
05:38PM 28.4176 -81.3132 143° Southeast 151 174 2,300 3,300 Climbing FlightAware ADS-B (KMCO)
05:38PM 28.4036 -81.3048 152° Southeast 162 186 3,400 3,420 Climbing FlightAware ADS-B (KMCO)
05:38PM 28.3894 -81.2973 155° Southeast 176 203 4,600 3,300 Climbing FlightAware ADS-B (KMCO)
05:39PM 28.3582 -81.2709 143° Southeast 234 269 6,800 3,540 Climbing FlightAware ADS-B (KMCO)
05:39PM 28.3557 -81.2421 96° East 252 290 8,500 4,380 Climbing FlightAware ADS-B (KMCO)
05:40PM 28.3589 -81.2131 83° East 255 293 10,100 3,900 Climbing FlightAware ADS-B (KMCO)
05:40PM 28.3731 -81.1932 51° Northeast 277 319 11,100 3,120 Climbing FlightAware ADS-B (KMCO)
05:40PM 28.3984 -81.1822 21° North 298 343 12,200 3,780 Climbing FlightAware ADS-B (KMCO)
05:41PM 28.4529 -81.1906 352° North 314 361 15,000 3,000 Climbing FlightAware ADS-B (KMCO)
05:42PM 28.5005 -81.2057 344° North 335 386 15,800 900 Climbing FlightAware ADS-B
05:42PM 28.5471 -81.2211 344° North 372 428 15,900 2,460 Climbing FlightAware ADS-B (KMCO)
05:43PM 28.5971 -81.2374 344° North 362 417 18,300 4,560 Climbing FlightAware ADS-B
05:43PM 28.6449 -81.2517 345° North 362 417 20,500 3,600 Climbing FlightAware ADS-B (KMCO)
05:44PM 28.6936 -81.2661 345° North 377 434 22,000 2,400 Climbing FlightAware ADS-B
05:44PM 28.7414 -81.2808 345° North 396 456 23,000 960 Climbing FlightAware ADS-B (KMCO)
05:45PM 28.8024 -81.2998 345° North 396 456 23,000  Level FlightAware ADS-B (KSFB)
05:45PM 28.8564 -81.3159 345° North 392 451 23,000  Level FlightAware ADS-B (KMCO)
05:46PM 28.9065 -81.3308 345° North 389 448 23,000 900 Level FlightAware ADS-B (KSFB)
05:46PM 28.9655 -81.3486 345° North 392 451 24,000 2,640 Climbing FlightAware ADS-B
05:47PM 29.0402 -81.3709 345° North 394 453 26,300 2,880 Climbing FlightAware ADS-B (KMCO)
05:48PM 29.1144 -81.3902 347° North 410 472 28,000 1,800 Climbing FlightAware ADS-B (KMCO)
05:48PM 29.1941 -81.3992 354° North 424 488 28,800 720 Climbing FlightAware ADS-B (KMCO)
05:49PM 29.2710 -81.4062 355° North 447 514 29,000 120 Climbing FlightAware ADS-B (KMCO)
05:50PM 29.3576 -81.4145 355° North 450 518 29,000  Level FlightAware ADS-B (KMCO)
05:50PM 29.4408 -81.4226 355° North 447 514 29,000  Level FlightAware ADS-B (KMCO)
05:51PM 29.5157 -81.4298 355° North 445 512 29,000  Level FlightAware ADS-B (KMCO)
05:52PM 29.6044 -81.4384 355° North 445 512 29,000  Level FlightAware ADS-B (KMCO)
05:52PM 29.6938 -81.4471 355° North 448 516 29,000  Level FlightAware ADS-B (KMCO)
05:53PM 29.7803 -81.4555 355° North 449 517 29,000  Level FlightAware ADS-B (KMCO)
05:54PM 29.8718 -81.4644 355° North 449 517 29,000  Level FlightAware ADS-B (KMCO)
05:54PM 29.9598 -81.4731 355° North 450 518 29,000  Level FlightAware ADS-B (KMCO)
05:56PM 30.1294 -81.4900 355° North 444 511 29,000  Level Jacksonville Center
05:57PM 30.2547 -81.5025 355° North 444 511 29,000  Level Jacksonville Center
05:58PM 30.3822 -81.5081 358° North 444 511 29,000  Level Jacksonville Center
05:59PM 30.5072 -81.4967 North 439 505 29,000  Level Jacksonville Center
06:00PM 30.6325 -81.4875 North 439 505 29,000  Level Jacksonville Center
06:01PM 30.7556 -81.4783 North 444 511 29,000  Level Jacksonville Center
06:02PM 30.8786 -81.4669 North 439 505 29,000  Level Jacksonville Center
06:03PM 31.0017 -81.4578 North 439 505 29,000  Level Jacksonville Center
06:04PM 31.1289 -81.4486 North 444 511 29,000  Level Jacksonville Center
06:05PM 31.2542 -81.4369 North 440 506 29,000  Level Jacksonville Center
06:06PM 31.3603 -81.4086 13° North 446 513 29,000  Level Jacksonville Center
06:07PM 31.4978 -81.3892 North 446 513 29,000  Level Jacksonville Center
06:08PM 31.6106 -81.3778 North 446 513 29,000  Level Jacksonville Center
06:09PM 31.7481 -81.3608 North 446 513 29,000 -300 Level Jacksonville Center
06:10PM 31.8731 -81.3489 North 446 513 28,400 -1,020 Descending Jacksonville Center
06:11PM 31.9983 -81.3322 North 446 513 27,000 -1,500 Descending Jacksonville Center
06:12PM 32.1214 -81.3203 North 437 503 25,500 -1,380 Descending Jacksonville Center
06:13PM 32.2400 -81.3033 North 427 491 24,300 -1,080 Descending Jacksonville Center
06:14PM 32.3569 -81.2917 North 422 486 23,400 -960 Descending Jacksonville Center
06:15PM 32.4694 -81.2797 North 410 472 22,400 -960 Descending Jacksonville Center
06:16PM 32.5819 -81.2678 North 405 466 21,500 -1,320 Descending Jacksonville Center
06:17PM 32.6800 -81.2586 North 405 466 19,800 -1,860 Descending Jacksonville Center
06:18PM 32.7864 -81.2444 North 399 459 17,800 -1,680 Descending Jacksonville Center
06:19PM 32.8906 -81.2350 North 381 438 16,500 -1,320 Descending Jacksonville Center
06:20PM 32.9969 -81.2258 North 376 433 15,200 -1,380 Descending Jacksonville Center
06:21PM 33.0928 -81.2114 North 364 419 13,800 -1,440 Descending Jacksonville Center
06:22PM 33.1928 -81.2022 North 359 413 12,400 -1,200 Descending Jacksonville Center
06:23PM 33.2886 -81.1903 North 353 406 11,400 -960 Descending Jacksonville Center
06:24PM 33.3783 -81.1814 North 338 389 10,500 -1,380 Descending Jacksonville Center
06:25PM 33.4575 -81.1722 North 315 362 8,700 -1,800 Descending Jacksonville Center
06:26PM 33.5319 -81.1383 21° North 290 334 6,900 -1,560 Descending Jacksonville Center
06:27PM 33.6022 -81.0772 36° Northeast 285 328 5,600 -1,260 Descending Jacksonville Center
06:28PM 33.6703 -81.0208 35° Northeast 285 328 4,400 -1,260 Descending Jacksonville Center
06:29PM 33.7425 -80.9794 25° Northeast 293 337 3,100 -1,140 Descending Jacksonville Center
06:30PM 33.8153 -80.9528 17° North 281 323 2,200 -900 Descending Jacksonville Center
06:32PM 33.9151 -81.0874 328° Northwest  Level Estimated
06:39PM 33.9333 -81.1167 328° Northwest  Level FlightAware Approximate
06:40PM 33.9388 -81.1195 328° Northwest  Level Estimated
06:41PM 33.9333 -81.1167 328° Northwest  Level FlightAware Approximate
06:42PM 33.9388 -81.1195 328° Northwest  Level Estimated
06:43PM 33.9333 -81.1167 328° Northwest  Level FlightAware Approximate
06:44PM 33.9388 -81.1195 328° Northwest  Level Estimated
06:45PM 33.9333 -81.1167 328° Northwest  Level FlightAware Approximate